createdAt,value
2023-05-20T00:00:53.117Z,100220.13
2023-05-20T00:03:39.236Z,100217.41
2023-05-20T00:06:22.359Z,100217.50
2023-05-20T00:09:08.202Z,100218.19
2023-05-20T00:11:51.289Z,100215.97
2023-05-20T00:14:38.901Z,100209.19
2023-05-20T00:17:08.987Z,100205.84
2023-05-20T00:19:54.879Z,100202.28
2023-05-20T00:22:30.995Z,100190.81
2023-05-20T00:25:20.567Z,100192.81
2023-05-20T00:28:10.155Z,100184.19
2023-05-20T00:30:54.974Z,100173.75
2023-05-20T00:33:39.679Z,100169.88
2023-05-20T00:36:25.853Z,100170.59
2023-05-20T00:39:21.808Z,100172.75
2023-05-20T00:42:14.997Z,100168.47
2023-05-20T00:45:06.136Z,100175.44
2023-05-20T00:47:48.047Z,100178.97
2023-05-20T00:51:00.541Z,100174.72
2023-05-20T00:53:42.846Z,100172.09
2023-05-20T00:56:28.000Z,100171.66
2023-05-20T00:59:17.088Z,100181.00
2023-05-20T01:02:00.158Z,100184.03
2023-05-20T01:04:50.306Z,100180.00
2023-05-20T01:07:38.855Z,100183.34
2023-05-20T01:10:19.341Z,100186.75
2023-05-20T01:13:02.980Z,100186.06
2023-05-20T01:15:49.915Z,100186.31
2023-05-20T01:18:30.969Z,100189.28
2023-05-20T01:21:19.192Z,100193.28
2023-05-20T01:24:08.712Z,100194.47
2023-05-20T01:27:06.014Z,100187.53
2023-05-20T01:29:59.580Z,100195.75
2023-05-20T01:32:41.517Z,100191.34
2023-05-20T01:35:29.211Z,100193.03
2023-05-20T01:38:09.717Z,100186.03
2023-05-20T01:40:51.063Z,100193.38
2023-05-20T01:43:41.053Z,100186.59
2023-05-20T01:46:20.893Z,100191.69
2023-05-20T01:49:14.711Z,100188.44
2023-05-20T01:51:58.706Z,100188.66
2023-05-20T01:54:42.955Z,100195.56
2023-05-20T01:57:34.055Z,100195.25
2023-05-20T02:00:29.748Z,100193.59
2023-05-20T02:03:13.540Z,100195.91
2023-05-20T02:05:59.747Z,100203.41
2023-05-20T02:08:48.254Z,100199.44
2023-05-20T02:11:33.333Z,100203.13
2023-05-20T02:14:23.825Z,100201.44
2023-05-20T02:17:30.101Z,100203.44
2023-05-20T02:20:16.180Z,100199.44
2023-05-20T02:22:56.919Z,100206.16
2023-05-20T02:25:37.093Z,100206.41
2023-05-20T02:28:34.287Z,100216.44
2023-05-20T02:31:28.463Z,100214.41
2023-05-20T02:34:06.655Z,100207.19
2023-05-20T02:36:56.587Z,100208.09
2023-05-20T02:39:32.942Z,100205.00
2023-05-20T02:42:21.869Z,100212.03
2023-05-20T02:45:14.652Z,100204.28
2023-05-20T02:47:59.677Z,100200.63
2023-05-20T02:50:42.971Z,100195.50
2023-05-20T02:53:35.787Z,100202.75
2023-05-20T02:56:21.480Z,100201.91
2023-05-20T02:59:04.851Z,100206.16
2023-05-20T03:01:43.073Z,100211.00
2023-05-20T03:04:25.030Z,100220.50
2023-05-20T03:07:11.764Z,100229.16
2023-05-20T03:10:00.453Z,100228.66
2023-05-20T03:12:38.466Z,100223.06
2023-05-20T03:15:26.337Z,100218.50
2023-05-20T03:18:11.165Z,100227.16
2023-05-20T03:21:00.243Z,100236.72
2023-05-20T03:23:43.951Z,100237.88
2023-05-20T03:26:28.797Z,100234.44
2023-05-20T03:29:12.522Z,100228.97
2023-05-20T03:31:48.940Z,100234.63
2023-05-20T03:34:34.199Z,100235.81
2023-05-20T03:37:20.450Z,100237.66
2023-05-20T03:40:10.553Z,100232.88
2023-05-20T03:42:46.861Z,100243.81
2023-05-20T03:45:30.407Z,100234.50
2023-05-20T03:48:26.094Z,100236.94
2023-05-20T03:51:07.924Z,100233.72
2023-05-20T03:53:52.136Z,100233.59
2023-05-20T03:56:46.730Z,100239.97
2023-05-20T03:59:43.215Z,100244.47
2023-05-20T04:02:32.014Z,100238.81
2023-05-20T04:05:10.947Z,100250.22
2023-05-20T04:07:59.216Z,100252.63
2023-05-20T04:10:46.331Z,100255.13
2023-05-20T04:13:30.744Z,100259.78
2023-05-20T04:16:14.103Z,100261.94
2023-05-20T04:19:01.795Z,100266.94
2023-05-20T04:21:49.700Z,100264.78
2023-05-20T04:24:34.033Z,100263.25
2023-05-20T04:27:20.747Z,100260.41
2023-05-20T04:30:01.884Z,100269.16
2023-05-20T04:32:41.773Z,100260.28
2023-05-20T04:35:21.332Z,100261.22
2023-05-20T04:38:08.678Z,100264.59
2023-05-20T04:40:51.195Z,100261.16
2023-05-20T04:43:36.708Z,100264.09
2023-05-20T04:46:24.506Z,100267.84
2023-05-20T04:49:08.406Z,100259.94
2023-05-20T04:51:51.964Z,100261.75
2023-05-20T04:54:38.782Z,100268.50
2023-05-20T04:57:25.366Z,100265.28
2023-05-20T05:00:05.368Z,100261.50
2023-05-20T05:02:51.876Z,100256.16
2023-05-20T05:05:40.006Z,100246.72
2023-05-20T05:08:27.524Z,100255.34
2023-05-20T05:11:16.634Z,100252.16
2023-05-20T05:14:03.747Z,100260.53
2023-05-20T05:16:50.054Z,100248.72
2023-05-20T05:19:37.292Z,100255.91
2023-05-20T05:22:18.697Z,100256.03
2023-05-20T05:25:22.685Z,100262.34
2023-05-20T05:28:02.374Z,100260.28
2023-05-20T05:30:44.925Z,100260.84
2023-05-20T05:33:23.159Z,100269.69
2023-05-20T05:36:08.718Z,100267.19
2023-05-20T05:38:48.900Z,100277.09
2023-05-20T05:41:31.942Z,100268.88
2023-05-20T05:44:27.357Z,100269.09
2023-05-20T05:47:10.805Z,100271.84
2023-05-20T05:49:50.801Z,100264.13
2023-05-20T05:52:29.084Z,100264.31
2023-05-20T05:55:15.612Z,100259.25
2023-05-20T05:58:06.584Z,100256.50
2023-05-20T06:00:39.510Z,100263.88
2023-05-20T06:03:22.542Z,100256.00
2023-05-20T06:06:09.030Z,100265.56
2023-05-20T06:08:54.462Z,100273.16
2023-05-20T06:11:38.548Z,100259.69
2023-05-20T06:14:23.259Z,100261.44
2023-05-20T06:17:08.991Z,100262.75
2023-05-20T06:19:55.945Z,100270.47
2023-05-20T06:22:36.915Z,100261.75
2023-05-20T06:25:30.694Z,100277.19
2023-05-20T06:28:14.727Z,100267.75
2023-05-20T06:30:58.535Z,100271.78
2023-05-20T06:33:45.150Z,100275.38
2023-05-20T06:36:25.918Z,100267.22
2023-05-20T06:39:01.250Z,100278.13
2023-05-20T06:41:42.042Z,100279.53
2023-05-20T06:44:32.761Z,100274.72
2023-05-20T06:47:21.523Z,100283.94
2023-05-20T06:50:13.651Z,100287.38
2023-05-20T06:53:00.530Z,100285.53
2023-05-20T06:55:40.771Z,100282.13
2023-05-20T06:58:18.991Z,100282.88
2023-05-20T07:01:05.387Z,100281.59
2023-05-20T07:03:47.033Z,100270.16
2023-05-20T07:06:27.856Z,100271.44
2023-05-20T07:09:11.777Z,100267.97
2023-05-20T07:11:53.500Z,100277.50
2023-05-20T07:14:33.827Z,100268.97
2023-05-20T07:17:18.285Z,100265.38
2023-05-20T07:20:05.230Z,100261.75
2023-05-20T07:22:52.975Z,100261.13
2023-05-20T07:25:46.981Z,100262.41
2023-05-20T07:28:34.664Z,100263.34
2023-05-20T07:31:15.234Z,100257.66
2023-05-20T07:33:57.966Z,100244.78
2023-05-20T07:36:41.734Z,100250.00
2023-05-20T07:39:18.647Z,100255.59
2023-05-20T07:41:56.984Z,100251.28
2023-05-20T07:44:46.941Z,100261.91
2023-05-20T07:47:25.519Z,100260.31
2023-05-20T07:50:07.047Z,100268.00
2023-05-20T07:52:56.338Z,100263.84
2023-05-20T07:55:48.935Z,100254.84
2023-05-20T07:58:31.715Z,100263.75
2023-05-20T08:01:10.135Z,100271.16
2023-05-20T08:03:57.109Z,100258.84
2023-05-20T08:06:33.693Z,100257.69
2023-05-20T08:09:21.850Z,100259.31
2023-05-20T08:12:19.360Z,100248.78
2023-05-20T08:15:01.976Z,100248.06
2023-05-20T08:17:53.656Z,100254.78
2023-05-20T08:20:35.395Z,100244.25
2023-05-20T08:23:19.069Z,100249.09
2023-05-20T08:25:57.758Z,100242.78
2023-05-20T08:28:39.706Z,100240.72
2023-05-20T08:31:21.293Z,100229.84
2023-05-20T08:34:04.972Z,100233.53
2023-05-20T08:36:51.749Z,100238.38
2023-05-20T08:39:32.913Z,100238.47
2023-05-20T08:42:14.006Z,100233.06
2023-05-20T08:45:01.938Z,100238.13
2023-05-20T08:48:05.629Z,100227.34
2023-05-20T08:50:39.036Z,100234.28
2023-05-20T08:53:14.462Z,100232.25
2023-05-20T08:56:10.929Z,100225.13
2023-05-20T08:58:49.191Z,100214.28
2023-05-20T09:01:31.765Z,100231.06
2023-05-20T09:04:12.092Z,100220.09
2023-05-20T09:07:18.007Z,100221.75
2023-05-20T09:10:06.897Z,100221.56
2023-05-20T09:12:55.852Z,100216.94
2023-05-20T09:15:40.997Z,100210.38
2023-05-20T09:18:19.651Z,100224.53
2023-05-20T09:21:15.988Z,100212.06
2023-05-20T09:24:01.676Z,100206.03
2023-05-20T09:26:37.505Z,100211.88
2023-05-20T09:29:32.929Z,100206.66
2023-05-20T09:32:41.426Z,100203.50
2023-05-20T09:35:27.031Z,100206.59
2023-05-20T09:38:12.891Z,100200.03
2023-05-20T09:41:01.997Z,100206.78
2023-05-20T09:43:47.024Z,100196.34
2023-05-20T09:46:18.171Z,100197.69
2023-05-20T09:48:54.600Z,100190.06
2023-05-20T09:51:39.143Z,100180.56
2023-05-20T09:54:13.078Z,100178.88
2023-05-20T09:56:59.288Z,100172.19
2023-05-20T09:59:46.558Z,100173.16
2023-05-20T10:02:36.864Z,100163.63
2023-05-20T10:05:20.481Z,100162.81
2023-05-20T10:08:44.139Z,100160.44
2023-05-20T10:11:37.962Z,100156.53
2023-05-20T10:14:35.087Z,100156.63
2023-05-20T10:17:26.877Z,100156.53
2023-05-20T10:20:12.973Z,100160.13
2023-05-20T10:22:55.540Z,100150.03
2023-05-20T10:29:11.783Z,100149.91
2023-05-20T10:32:04.553Z,100149.78
2023-05-20T10:34:51.748Z,100138.72
2023-05-20T10:37:48.347Z,100132.91
2023-05-20T10:40:31.433Z,100133.47
2023-05-20T10:43:16.364Z,100130.47
2023-05-20T10:46:00.277Z,100118.72
2023-05-20T10:48:45.389Z,100122.28
2023-05-20T10:51:33.002Z,100120.88
2023-05-20T10:54:16.486Z,100110.03
2023-05-20T10:57:02.712Z,100114.41
2023-05-20T10:59:39.036Z,100120.09
2023-05-20T11:02:20.398Z,100113.34
2023-05-20T11:04:47.987Z,100105.47
2023-05-20T11:07:35.356Z,100108.59
2023-05-20T11:10:05.367Z,100116.16
2023-05-20T11:12:40.778Z,100096.41
2023-05-20T11:15:24.854Z,100094.69
2023-05-20T11:18:06.250Z,100093.63
2023-05-20T11:20:55.632Z,100092.41
2023-05-20T11:23:31.529Z,100098.88
2023-05-20T11:26:14.380Z,100085.25
2023-05-20T11:28:48.038Z,100086.91
2023-05-20T11:31:34.889Z,100091.59
2023-05-20T11:34:16.071Z,100087.72
2023-05-20T11:37:11.276Z,100083.97
2023-05-20T11:39:46.294Z,100087.16
2023-05-20T11:42:21.847Z,100093.16
2023-05-20T11:44:49.356Z,100090.44
2023-05-20T11:47:19.294Z,100092.03
2023-05-20T11:50:04.968Z,100077.78
2023-05-20T11:52:48.929Z,100085.97
2023-05-20T11:55:28.224Z,100079.72
2023-05-20T11:57:56.922Z,100091.75
2023-05-20T12:00:36.266Z,100083.25
2023-05-20T12:03:33.078Z,100072.06
2023-05-20T12:06:06.226Z,100075.22
2023-05-20T12:08:49.667Z,100077.16
2023-05-20T12:11:36.928Z,100082.81
2023-05-20T12:14:21.456Z,100080.59
2023-05-20T12:16:57.047Z,100075.22
2023-05-20T12:19:37.005Z,100080.19
2023-05-20T12:22:24.650Z,100070.75
2023-05-20T12:25:03.182Z,100065.44
2023-05-20T12:27:48.217Z,100057.97
2023-05-20T12:30:21.077Z,100056.09
2023-05-20T12:33:08.682Z,100052.03
2023-05-20T12:35:51.286Z,100053.13
2023-05-20T12:38:26.713Z,100054.91
2023-05-20T12:41:04.312Z,100056.97
2023-05-20T12:43:36.814Z,100056.03
2023-05-20T12:46:15.433Z,100042.06
2023-05-20T12:48:45.522Z,100052.78
2023-05-20T12:51:31.594Z,100050.72
2023-05-20T12:54:21.115Z,100054.19
2023-05-20T12:57:07.340Z,100046.91
2023-05-20T12:59:45.388Z,100045.34
2023-05-20T13:02:27.767Z,100037.81
2023-05-20T13:05:16.382Z,100031.19
2023-05-20T13:08:03.644Z,100023.81
2023-05-20T13:10:45.099Z,100026.72
2023-05-20T13:13:16.463Z,100021.34
2023-05-20T13:15:58.023Z,100018.25
2023-05-20T13:18:41.757Z,100018.66
2023-05-20T13:21:22.115Z,100018.53
2023-05-20T13:24:06.091Z,100022.16
2023-05-20T13:26:48.380Z,100018.72
2023-05-20T13:29:36.725Z,100009.41
2023-05-20T13:32:15.347Z,100004.19
2023-05-20T13:34:59.819Z,100007.78
2023-05-20T13:37:42.602Z,100006.47
2023-05-20T13:40:16.888Z,99999.94
2023-05-20T13:43:05.243Z,99999.75
2023-05-20T13:45:38.071Z,100006.53
2023-05-20T13:48:13.596Z,100005.84
2023-05-20T13:51:05.141Z,100004.09
